sensor_id;sensor_type;location;lat;lon;timestamp;temperature;humidity
51783;DHT22;37845;53.196;5.638;2023-05-02T00:02:10;10.30;99.90
51783;DHT22;37845;53.196;5.638;2023-05-02T00:04:36;10.30;99.90
51783;DHT22;37845;53.196;5.638;2023-05-02T00:07:01;10.10;99.90
51783;DHT22;37845;53.196;5.638;2023-05-02T00:09:30;10.30;99.90
51783;DHT22;37845;53.196;5.638;2023-05-02T00:11:56;10.30;99.90
51783;DHT22;37845;53.196;5.638;2023-05-02T00:14:21;10.30;99.90
51783;DHT22;37845;53.196;5.638;2023-05-02T00:16:47;10.40;99.90
51783;DHT22;37845;53.196;5.638;2023-05-02T00:19:13;10.40;99.90
51783;DHT22;37845;53.196;5.638;2023-05-02T00:21:38;10.30;99.90
51783;DHT22;37845;53.196;5.638;2023-05-02T00:24:04;10.30;99.90
51783;DHT22;37845;53.196;5.638;2023-05-02T00:26:30;10.30;99.90
51783;DHT22;37845;53.196;5.638;2023-05-02T00:28:56;10.30;99.90
51783;DHT22;37845;53.196;5.638;2023-05-02T00:31:23;10.30;99.90
51783;DHT22;37845;53.196;5.638;2023-05-02T00:33:48;10.30;99.90
51783;DHT22;37845;53.196;5.638;2023-05-02T00:36:15;10.30;99.90
51783;DHT22;37845;53.196;5.638;2023-05-02T00:38:41;9.70;99.90
51783;DHT22;37845;53.196;5.638;2023-05-02T00:41:06;10.10;99.90
51783;DHT22;37845;53.196;5.638;2023-05-02T00:43:32;10.10;99.90
51783;DHT22;37845;53.196;5.638;2023-05-02T00:45:58;10.00;99.90
51783;DHT22;37845;53.196;5.638;2023-05-02T00:48:24;10.00;99.90
51783;DHT22;37845;53.196;5.638;2023-05-02T00:50:53;9.90;99.90
51783;DHT22;37845;53.196;5.638;2023-05-02T00:53:20;9.90;99.90
51783;DHT22;37845;53.196;5.638;2023-05-02T00:55:48;9.80;99.90
51783;DHT22;37845;53.196;5.638;2023-05-02T00:58:24;9.70;99.90
51783;DHT22;37845;53.196;5.638;2023-05-02T01:01:39;9.60;99.90
51783;DHT22;37845;53.196;5.638;2023-05-02T01:09:33;9.60;99.90
51783;DHT22;37845;53.196;5.638;2023-05-02T01:12:05;9.50;99.90
51783;DHT22;37845;53.196;5.638;2023-05-02T01:14:44;9.50;99.90
51783;DHT22;37845;53.196;5.638;2023-05-02T01:17:14;8.90;99.90
51783;DHT22;37845;53.196;5.638;2023-05-02T01:20:02;9.50;99.90
51783;DHT22;37845;53.196;5.638;2023-05-02T01:22:29;9.40;99.90
51783;DHT22;37845;53.196;5.638;2023-05-02T01:30:18;9.30;99.90
51783;DHT22;37845;53.196;5.638;2023-05-02T01:32:48;8.50;99.90
51783;DHT22;37845;53.196;5.638;2023-05-02T01:35:17;9.30;99.90
51783;DHT22;37845;53.196;5.638;2023-05-02T01:37:45;9.30;99.90
51783;DHT22;37845;53.196;5.638;2023-05-02T01:40:16;9.20;99.90
51783;DHT22;37845;53.196;5.638;2023-05-02T01:42:51;8.50;99.90
51783;DHT22;37845;53.196;5.638;2023-05-02T01:45:18;9.20;99.90
51783;DHT22;37845;53.196;5.638;2023-05-02T01:47:45;9.10;99.90
51783;DHT22;37845;53.196;5.638;2023-05-02T01:50:20;9.10;99.90
51783;DHT22;37845;53.196;5.638;2023-05-02T01:52:53;9.10;99.90
51783;DHT22;37845;53.196;5.638;2023-05-02T01:55:20;9.10;99.90
51783;DHT22;37845;53.196;5.638;2023-05-02T01:57:47;9.00;99.90
51783;DHT22;37845;53.196;5.638;2023-05-02T02:00:16;9.00;99.90
51783;DHT22;37845;53.196;5.638;2023-05-02T02:02:44;9.00;99.90
51783;DHT22;37845;53.196;5.638;2023-05-02T02:05:12;8.90;99.90
51783;DHT22;37845;53.196;5.638;2023-05-02T02:07:42;8.90;99.90
51783;DHT22;37845;53.196;5.638;2023-05-02T02:10:08;8.90;99.90
51783;DHT22;37845;53.196;5.638;2023-05-02T02:12:53;8.90;99.90
51783;DHT22;37845;53.196;5.638;2023-05-02T02:15:24;8.90;99.90
51783;DHT22;37845;53.196;5.638;2023-05-02T02:17:58;8.90;99.90
51783;DHT22;37845;53.196;5.638;2023-05-02T02:20:26;8.90;99.90
51783;DHT22;37845;53.196;5.638;2023-05-02T02:22:53;8.80;99.90
51783;DHT22;37845;53.196;5.638;2023-05-02T02:25:20;8.80;99.90
51783;DHT22;37845;53.196;5.638;2023-05-02T02:27:46;8.80;99.90
51783;DHT22;37845;53.196;5.638;2023-05-02T02:30:13;8.80;99.90
51783;DHT22;37845;53.196;5.638;2023-05-02T02:32:40;8.90;99.90
51783;DHT22;37845;53.196;5.638;2023-05-02T02:35:07;8.90;99.90
51783;DHT22;37845;53.196;5.638;2023-05-02T02:37:51;8.80;99.90
51783;DHT22;37845;53.196;5.638;2023-05-02T02:40:40;8.70;99.90
51783;DHT22;37845;53.196;5.638;2023-05-02T02:45:49;8.70;99.90
51783;DHT22;37845;53.196;5.638;2023-05-02T02:48:44;8.60;99.90
51783;DHT22;37845;53.196;5.638;2023-05-02T02:51:29;8.60;99.90
51783;DHT22;37845;53.196;5.638;2023-05-02T02:54:12;8.60;99.90
51783;DHT22;37845;53.196;5.638;2023-05-02T02:56:41;8.60;99.90
51783;DHT22;37845;53.196;5.638;2023-05-02T02:59:31;8.50;99.90
51783;DHT22;37845;53.196;5.638;2023-05-02T03:02:12;8.60;99.90
51783;DHT22;37845;53.196;5.638;2023-05-02T03:04:43;8.60;99.90
51783;DHT22;37845;53.196;5.638;2023-05-02T03:07:13;8.60;99.90
51783;DHT22;37845;53.196;5.638;2023-05-02T03:09:43;8.60;99.90
51783;DHT22;37845;53.196;5.638;2023-05-02T03:12:09;8.60;99.90
51783;DHT22;37845;53.196;5.638;2023-05-02T03:14:35;8.60;99.90
51783;DHT22;37845;53.196;5.638;2023-05-02T03:17:02;8.60;99.90
51783;DHT22;37845;53.196;5.638;2023-05-02T03:19:30;8.60;99.90
51783;DHT22;37845;53.196;5.638;2023-05-02T03:21:56;8.60;99.90
51783;DHT22;37845;53.196;5.638;2023-05-02T03:24:22;8.60;99.90
51783;DHT22;37845;53.196;5.638;2023-05-02T03:26:47;8.60;99.90
51783;DHT22;37845;53.196;5.638;2023-05-02T03:29:16;8.60;99.90
51783;DHT22;37845;53.196;5.638;2023-05-02T03:31:42;8.60;99.90
51783;DHT22;37845;53.196;5.638;2023-05-02T03:34:07;8.60;99.90
51783;DHT22;37845;53.196;5.638;2023-05-02T03:36:33;8.50;99.90
51783;DHT22;37845;53.196;5.638;2023-05-02T03:38:59;8.50;99.90
51783;DHT22;37845;53.196;5.638;2023-05-02T03:41:25;8.50;99.90
51783;DHT22;37845;53.196;5.638;2023-05-02T03:43:51;8.50;99.90
51783;DHT22;37845;53.196;5.638;2023-05-02T03:46:16;8.50;99.90
51783;DHT22;37845;53.196;5.638;2023-05-02T03:48:51;8.20;99.90
51783;DHT22;37845;53.196;5.638;2023-05-02T03:51:17;8.40;99.90
51783;DHT22;37845;53.196;5.638;2023-05-02T03:53:43;8.40;99.90
51783;DHT22;37845;53.196;5.638;2023-05-02T03:56:08;8.30;99.90
51783;DHT22;37845;53.196;5.638;2023-05-02T03:58:39;8.20;99.90
51783;DHT22;37845;53.196;5.638;2023-05-02T04:01:15;9.00;99.90
51783;DHT22;37845;53.196;5.638;2023-05-02T04:03:41;8.40;99.90
51783;DHT22;37845;53.196;5.638;2023-05-02T04:06:07;8.10;99.90
51783;DHT22;37845;53.196;5.638;2023-05-02T04:08:33;8.10;99.90
51783;DHT22;37845;53.196;5.638;2023-05-02T04:10:59;8.00;99.90
51783;DHT22;37845;53.196;5.638;2023-05-02T04:13:33;8.10;99.90
51783;DHT22;37845;53.196;5.638;2023-05-02T04:16:04;8.10;99.90
51783;DHT22;37845;53.196;5.638;2023-05-02T04:18:30;8.10;99.90
51783;DHT22;37845;53.196;5.638;2023-05-02T04:20:56;8.20;99.90
51783;DHT22;37845;53.196;5.638;2023-05-02T04:23:21;8.10;99.90
51783;DHT22;37845;53.196;5.638;2023-05-02T04:25:54;8.90;99.90
51783;DHT22;37845;53.196;5.638;2023-05-02T04:28:21;8.10;99.90
51783;DHT22;37845;53.196;5.638;2023-05-02T04:30:50;8.10;99.90
51783;DHT22;37845;53.196;5.638;2023-05-02T04:33:17;8.10;99.90
51783;DHT22;37845;53.196;5.638;2023-05-02T04:35:43;8.20;99.90
51783;DHT22;37845;53.196;5.638;2023-05-02T04:38:09;8.20;99.90
51783;DHT22;37845;53.196;5.638;2023-05-02T04:40:35;9.10;99.90
51783;DHT22;37845;53.196;5.638;2023-05-02T04:43:00;8.10;99.90
51783;DHT22;37845;53.196;5.638;2023-05-02T04:45:27;8.80;99.90
51783;DHT22;37845;53.196;5.638;2023-05-02T04:47:55;8.10;99.90
51783;DHT22;37845;53.196;5.638;2023-05-02T04:50:23;8.10;99.90
51783;DHT22;37845;53.196;5.638;2023-05-02T04:52:49;8.00;99.90
51783;DHT22;37845;53.196;5.638;2023-05-02T04:55:15;8.00;99.90
51783;DHT22;37845;53.196;5.638;2023-05-02T04:57:40;8.00;99.90
51783;DHT22;37845;53.196;5.638;2023-05-02T05:00:07;8.00;99.90
51783;DHT22;37845;53.196;5.638;2023-05-02T05:02:32;7.90;99.90
51783;DHT22;37845;53.196;5.638;2023-05-02T05:05:00;8.00;99.90
51783;DHT22;37845;53.196;5.638;2023-05-02T05:07:26;8.00;99.90
51783;DHT22;37845;53.196;5.638;2023-05-02T05:09:52;8.00;99.90
51783;DHT22;37845;53.196;5.638;2023-05-02T05:12:18;8.00;99.90
51783;DHT22;37845;53.196;5.638;2023-05-02T05:14:44;7.90;99.90
51783;DHT22;37845;53.196;5.638;2023-05-02T05:17:10;8.00;99.90
51783;DHT22;37845;53.196;5.638;2023-05-02T05:19:36;8.00;99.90
51783;DHT22;37845;53.196;5.638;2023-05-02T05:22:01;8.00;99.90
51783;DHT22;37845;53.196;5.638;2023-05-02T05:24:27;8.50;99.90
51783;DHT22;37845;53.196;5.638;2023-05-02T05:26:53;8.70;99.90
51783;DHT22;37845;53.196;5.638;2023-05-02T05:29:18;8.10;99.90
51783;DHT22;37845;53.196;5.638;2023-05-02T05:31:44;8.00;99.90
51783;DHT22;37845;53.196;5.638;2023-05-02T05:34:10;8.00;99.90
51783;DHT22;37845;53.196;5.638;2023-05-02T05:36:35;8.00;99.90
51783;DHT22;37845;53.196;5.638;2023-05-02T05:39:03;8.30;99.90
51783;DHT22;37845;53.196;5.638;2023-05-02T05:41:28;8.10;99.90
51783;DHT22;37845;53.196;5.638;2023-05-02T05:43:55;8.10;99.90
51783;DHT22;37845;53.196;5.638;2023-05-02T05:46:21;8.10;99.90
51783;DHT22;37845;53.196;5.638;2023-05-02T05:48:46;8.10;99.90
51783;DHT22;37845;53.196;5.638;2023-05-02T05:51:12;8.10;99.90
51783;DHT22;37845;53.196;5.638;2023-05-02T05:53:38;8.00;99.90
51783;DHT22;37845;53.196;5.638;2023-05-02T05:56:22;8.80;99.90
51783;DHT22;37845;53.196;5.638;2023-05-02T05:58:48;8.10;99.90
51783;DHT22;37845;53.196;5.638;2023-05-02T06:01:14;8.10;99.90
51783;DHT22;37845;53.196;5.638;2023-05-02T06:03:48;8.10;99.90
51783;DHT22;37845;53.196;5.638;2023-05-02T06:06:38;8.10;99.90
51783;DHT22;37845;53.196;5.638;2023-05-02T06:09:09;8.10;99.90
51783;DHT22;37845;53.196;5.638;2023-05-02T06:11:36;8.10;99.90
51783;DHT22;37845;53.196;5.638;2023-05-02T06:14:02;8.10;99.90
51783;DHT22;37845;53.196;5.638;2023-05-02T06:16:28;8.10;99.90
51783;DHT22;37845;53.196;5.638;2023-05-02T06:18:54;8.20;99.90
51783;DHT22;37845;53.196;5.638;2023-05-02T06:21:19;8.20;99.90
51783;DHT22;37845;53.196;5.638;2023-05-02T06:23:45;8.20;99.90
51783;DHT22;37845;53.196;5.638;2023-05-02T06:26:12;8.20;99.90
51783;DHT22;37845;53.196;5.638;2023-05-02T06:28:38;8.20;99.90
51783;DHT22;37845;53.196;5.638;2023-05-02T06:31:04;8.20;99.90
51783;DHT22;37845;53.196;5.638;2023-05-02T06:33:31;8.20;99.90
51783;DHT22;37845;53.196;5.638;2023-05-02T06:35:57;8.30;99.90
51783;DHT22;37845;53.196;5.638;2023-05-02T06:38:23;8.20;99.90
51783;DHT22;37845;53.196;5.638;2023-05-02T06:40:49;8.30;99.90
51783;DHT22;37845;53.196;5.638;2023-05-02T06:43:16;8.30;99.90
51783;DHT22;37845;53.196;5.638;2023-05-02T06:45:42;8.40;99.90
51783;DHT22;37845;53.196;5.638;2023-05-02T06:48:09;8.40;99.90
51783;DHT22;37845;53.196;5.638;2023-05-02T06:50:34;8.40;99.90
51783;DHT22;37845;53.196;5.638;2023-05-02T06:53:00;8.40;99.90
51783;DHT22;37845;53.196;5.638;2023-05-02T06:55:26;8.50;99.90
51783;DHT22;37845;53.196;5.638;2023-05-02T06:57:52;8.40;99.90
51783;DHT22;37845;53.196;5.638;2023-05-02T07:00:19;8.50;99.90
51783;DHT22;37845;53.196;5.638;2023-05-02T07:02:46;8.40;99.90
51783;DHT22;37845;53.196;5.638;2023-05-02T07:05:12;9.00;99.90
51783;DHT22;37845;53.196;5.638;2023-05-02T07:07:40;8.50;99.90
51783;DHT22;37845;53.196;5.638;2023-05-02T07:10:07;9.30;99.90
51783;DHT22;37845;53.196;5.638;2023-05-02T07:12:36;8.30;99.90
51783;DHT22;37845;53.196;5.638;2023-05-02T07:15:04;8.30;99.90
51783;DHT22;37845;53.196;5.638;2023-05-02T07:17:30;8.30;99.90
51783;DHT22;37845;53.196;5.638;2023-05-02T07:19:56;8.50;99.90
51783;DHT22;37845;53.196;5.638;2023-05-02T07:22:22;8.50;99.90
51783;DHT22;37845;53.196;5.638;2023-05-02T07:24:48;8.50;99.90
51783;DHT22;37845;53.196;5.638;2023-05-02T07:27:21;8.60;99.90
51783;DHT22;37845;53.196;5.638;2023-05-02T07:29:47;8.60;99.90
51783;DHT22;37845;53.196;5.638;2023-05-02T07:32:13;8.60;99.90
51783;DHT22;37845;53.196;5.638;2023-05-02T07:34:38;8.70;99.90
51783;DHT22;37845;53.196;5.638;2023-05-02T07:37:04;8.70;99.90
51783;DHT22;37845;53.196;5.638;2023-05-02T07:39:32;8.70;99.90
51783;DHT22;37845;53.196;5.638;2023-05-02T07:41:57;8.70;99.90
51783;DHT22;37845;53.196;5.638;2023-05-02T07:44:26;8.70;99.90
51783;DHT22;37845;53.196;5.638;2023-05-02T07:46:52;8.70;99.90
51783;DHT22;37845;53.196;5.638;2023-05-02T07:49:18;8.70;99.90
51783;DHT22;37845;53.196;5.638;2023-05-02T07:51:44;8.70;99.90
51783;DHT22;37845;53.196;5.638;2023-05-02T07:54:20;8.70;99.90
51783;DHT22;37845;53.196;5.638;2023-05-02T07:56:49;8.70;99.90
51783;DHT22;37845;53.196;5.638;2023-05-02T07:59:15;8.70;99.90
51783;DHT22;37845;53.196;5.638;2023-05-02T08:01:41;8.70;99.90
51783;DHT22;37845;53.196;5.638;2023-05-02T08:04:09;8.70;99.90
51783;DHT22;37845;53.196;5.638;2023-05-02T08:06:36;7.60;99.90
51783;DHT22;37845;53.196;5.638;2023-05-02T08:09:02;8.80;99.90
51783;DHT22;37845;53.196;5.638;2023-05-02T08:11:28;8.70;99.90
51783;DHT22;37845;53.196;5.638;2023-05-02T08:13:54;8.70;99.90
51783;DHT22;37845;53.196;5.638;2023-05-02T08:16:20;8.90;99.90
51783;DHT22;37845;53.196;5.638;2023-05-02T08:18:46;8.70;99.90
51783;DHT22;37845;53.196;5.638;2023-05-02T08:21:12;8.70;99.90
51783;DHT22;37845;53.196;5.638;2023-05-02T08:23:40;8.80;99.90
51783;DHT22;37845;53.196;5.638;2023-05-02T08:26:07;8.80;99.90
51783;DHT22;37845;53.196;5.638;2023-05-02T08:28:33;8.80;99.90
51783;DHT22;37845;53.196;5.638;2023-05-02T08:30:58;8.80;99.90
51783;DHT22;37845;53.196;5.638;2023-05-02T08:33:24;8.80;99.90
51783;DHT22;37845;53.196;5.638;2023-05-02T08:35:50;8.80;99.90
51783;DHT22;37845;53.196;5.638;2023-05-02T08:38:17;8.80;99.90
51783;DHT22;37845;53.196;5.638;2023-05-02T08:40:43;8.80;99.90
51783;DHT22;37845;53.196;5.638;2023-05-02T08:43:12;8.90;99.90
51783;DHT22;37845;53.196;5.638;2023-05-02T08:45:42;8.90;99.90
51783;DHT22;37845;53.196;5.638;2023-05-02T08:48:10;9.00;99.90
51783;DHT22;37845;53.196;5.638;2023-05-02T08:50:40;9.60;99.90
51783;DHT22;37845;53.196;5.638;2023-05-02T08:53:11;9.10;99.90
51783;DHT22;37845;53.196;5.638;2023-05-02T08:55:48;9.20;99.90
51783;DHT22;37845;53.196;5.638;2023-05-02T08:58:16;9.40;99.90
51783;DHT22;37845;53.196;5.638;2023-05-02T09:00:43;9.40;99.90
51783;DHT22;37845;53.196;5.638;2023-05-02T09:03:31;9.30;99.90
51783;DHT22;37845;53.196;5.638;2023-05-02T09:08:28;9.60;99.90
51783;DHT22;37845;53.196;5.638;2023-05-02T09:10:54;9.80;99.90
51783;DHT22;37845;53.196;5.638;2023-05-02T09:13:37;9.80;99.90
51783;DHT22;37845;53.196;5.638;2023-05-02T09:18:34;9.90;99.90
51783;DHT22;37845;53.196;5.638;2023-05-02T09:21:03;9.90;99.90
51783;DHT22;37845;53.196;5.638;2023-05-02T09:23:45;9.90;99.90
51783;DHT22;37845;53.196;5.638;2023-05-02T09:26:19;10.00;99.90
51783;DHT22;37845;53.196;5.638;2023-05-02T09:28:53;10.10;99.90
51783;DHT22;37845;53.196;5.638;2023-05-02T09:31:20;10.20;99.90
51783;DHT22;37845;53.196;5.638;2023-05-02T09:33:46;10.20;99.90
51783;DHT22;37845;53.196;5.638;2023-05-02T09:36:16;10.10;99.90
51783;DHT22;37845;53.196;5.638;2023-05-02T09:38:43;10.10;99.90
51783;DHT22;37845;53.196;5.638;2023-05-02T09:41:09;10.20;99.90
51783;DHT22;37845;53.196;5.638;2023-05-02T09:43:36;10.40;99.90
51783;DHT22;37845;53.196;5.638;2023-05-02T09:46:09;10.40;99.90
51783;DHT22;37845;53.196;5.638;2023-05-02T09:48:58;10.50;99.90
51783;DHT22;37845;53.196;5.638;2023-05-02T09:51:24;10.60;99.90
51783;DHT22;37845;53.196;5.638;2023-05-02T09:53:51;10.70;99.90
51783;DHT22;37845;53.196;5.638;2023-05-02T09:56:17;10.70;99.90
51783;DHT22;37845;53.196;5.638;2023-05-02T09:58:43;10.80;99.90
51783;DHT22;37845;53.196;5.638;2023-05-02T10:01:18;10.90;99.90
51783;DHT22;37845;53.196;5.638;2023-05-02T10:03:53;11.00;99.90
51783;DHT22;37845;53.196;5.638;2023-05-02T10:06:18;10.90;99.90
51783;DHT22;37845;53.196;5.638;2023-05-02T10:08:44;10.80;99.90
51783;DHT22;37845;53.196;5.638;2023-05-02T10:11:11;10.70;99.90
51783;DHT22;37845;53.196;5.638;2023-05-02T10:13:37;10.80;99.90
51783;DHT22;37845;53.196;5.638;2023-05-02T10:16:05;10.80;99.90
51783;DHT22;37845;53.196;5.638;2023-05-02T10:18:47;10.90;99.90
51783;DHT22;37845;53.196;5.638;2023-05-02T10:21:19;10.90;99.90
51783;DHT22;37845;53.196;5.638;2023-05-02T10:23:49;10.80;99.90
51783;DHT22;37845;53.196;5.638;2023-05-02T10:26:20;10.70;99.90
51783;DHT22;37845;53.196;5.638;2023-05-02T10:28:48;10.60;99.90
51783;DHT22;37845;53.196;5.638;2023-05-02T10:31:14;10.50;99.90
51783;DHT22;37845;53.196;5.638;2023-05-02T10:33:40;10.50;99.90
51783;DHT22;37845;53.196;5.638;2023-05-02T10:36:07;10.30;99.90
51783;DHT22;37845;53.196;5.638;2023-05-02T10:38:34;10.50;99.90
51783;DHT22;37845;53.196;5.638;2023-05-02T10:41:02;10.40;99.90
51783;DHT22;37845;53.196;5.638;2023-05-02T10:43:32;10.40;99.90
51783;DHT22;37845;53.196;5.638;2023-05-02T10:45:58;10.40;99.90
51783;DHT22;37845;53.196;5.638;2023-05-02T10:48:24;10.40;99.90
51783;DHT22;37845;53.196;5.638;2023-05-02T10:50:55;10.50;99.90
51783;DHT22;37845;53.196;5.638;2023-05-02T10:53:25;10.70;99.90
51783;DHT22;37845;53.196;5.638;2023-05-02T10:56:33;10.60;99.90
51783;DHT22;37845;53.196;5.638;2023-05-02T10:58:45;10.80;99.90
51783;DHT22;37845;53.196;5.638;2023-05-02T11:03:57;10.70;99.90
51783;DHT22;37845;53.196;5.638;2023-05-02T11:06:24;10.80;99.90
51783;DHT22;37845;53.196;5.638;2023-05-02T11:08:50;10.90;99.90
51783;DHT22;37845;53.196;5.638;2023-05-02T11:14:00;10.90;99.90
51783;DHT22;37845;53.196;5.638;2023-05-02T11:16:26;10.90;99.90
51783;DHT22;37845;53.196;5.638;2023-05-02T11:18:58;10.70;99.90
51783;DHT22;37845;53.196;5.638;2023-05-02T11:21:28;10.70;99.90
51783;DHT22;37845;53.196;5.638;2023-05-02T11:26:38;10.50;99.90
51783;DHT22;37845;53.196;5.638;2023-05-02T11:29:04;10.40;99.90
51783;DHT22;37845;53.196;5.638;2023-05-02T11:33:56;10.80;99.90
51783;DHT22;37845;53.196;5.638;2023-05-02T11:36:31;10.90;99.90
51783;DHT22;37845;53.196;5.638;2023-05-02T11:39:00;10.90;99.90
51783;DHT22;37845;53.196;5.638;2023-05-02T11:41:38;10.90;99.90
51783;DHT22;37845;53.196;5.638;2023-05-02T11:44:04;10.90;99.90
51783;DHT22;37845;53.196;5.638;2023-05-02T11:46:30;10.70;99.90
51783;DHT22;37845;53.196;5.638;2023-05-02T11:48:59;10.60;99.90
51783;DHT22;37845;53.196;5.638;2023-05-02T11:51:25;10.70;99.90
51783;DHT22;37845;53.196;5.638;2023-05-02T11:53:51;10.70;99.90
51783;DHT22;37845;53.196;5.638;2023-05-02T11:56:21;11.30;99.90
51783;DHT22;37845;53.196;5.638;2023-05-02T11:58:48;10.70;99.90
51783;DHT22;37845;53.196;5.638;2023-05-02T12:01:22;10.60;99.90
51783;DHT22;37845;53.196;5.638;2023-05-02T12:03:48;10.50;99.90
51783;DHT22;37845;53.196;5.638;2023-05-02T12:06:16;10.50;99.90
51783;DHT22;37845;53.196;5.638;2023-05-02T12:08:45;10.90;99.90
51783;DHT22;37845;53.196;5.638;2023-05-02T12:11:14;11.00;99.90
51783;DHT22;37845;53.196;5.638;2023-05-02T12:13:47;11.00;99.90
51783;DHT22;37845;53.196;5.638;2023-05-02T12:16:13;11.00;99.90
51783;DHT22;37845;53.196;5.638;2023-05-02T12:18:38;10.90;99.90
51783;DHT22;37845;53.196;5.638;2023-05-02T12:21:05;11.00;99.90
51783;DHT22;37845;53.196;5.638;2023-05-02T12:23:30;11.10;99.90
51783;DHT22;37845;53.196;5.638;2023-05-02T12:25:56;11.10;99.90
51783;DHT22;37845;53.196;5.638;2023-05-02T12:28:22;11.10;99.90
51783;DHT22;37845;53.196;5.638;2023-05-02T12:30:48;11.10;99.90
51783;DHT22;37845;53.196;5.638;2023-05-02T12:33:14;11.40;99.90
51783;DHT22;37845;53.196;5.638;2023-05-02T12:35:41;11.70;99.90
51783;DHT22;37845;53.196;5.638;2023-05-02T12:38:11;12.10;99.90
51783;DHT22;37845;53.196;5.638;2023-05-02T12:40:37;12.00;99.90
51783;DHT22;37845;53.196;5.638;2023-05-02T12:43:04;11.80;99.90
51783;DHT22;37845;53.196;5.638;2023-05-02T12:45:32;11.70;99.90
51783;DHT22;37845;53.196;5.638;2023-05-02T12:48:16;11.60;99.90
51783;DHT22;37845;53.196;5.638;2023-05-02T12:50:41;11.70;99.90
51783;DHT22;37845;53.196;5.638;2023-05-02T12:53:07;11.60;99.90
51783;DHT22;37845;53.196;5.638;2023-05-02T12:55:32;11.40;99.90
51783;DHT22;37845;53.196;5.638;2023-05-02T12:58:05;11.20;99.90
51783;DHT22;37845;53.196;5.638;2023-05-02T13:00:32;11.30;99.90
51783;DHT22;37845;53.196;5.638;2023-05-02T13:02:58;11.40;99.90
51783;DHT22;37845;53.196;5.638;2023-05-02T13:05:24;11.60;99.90
51783;DHT22;37845;53.196;5.638;2023-05-02T13:07:50;11.50;99.90
51783;DHT22;37845;53.196;5.638;2023-05-02T13:10:16;11.70;99.90
51783;DHT22;37845;53.196;5.638;2023-05-02T13:12:43;11.80;99.90
51783;DHT22;37845;53.196;5.638;2023-05-02T13:15:08;12.00;99.90
51783;DHT22;37845;53.196;5.638;2023-05-02T13:17:34;11.70;99.90
51783;DHT22;37845;53.196;5.638;2023-05-02T13:20:00;11.50;99.90
51783;DHT22;37845;53.196;5.638;2023-05-02T13:22:26;11.40;99.90
51783;DHT22;37845;53.196;5.638;2023-05-02T13:24:52;11.30;99.90
51783;DHT22;37845;53.196;5.638;2023-05-02T13:27:18;11.30;99.90
51783;DHT22;37845;53.196;5.638;2023-05-02T13:29:44;11.20;99.90
51783;DHT22;37845;53.196;5.638;2023-05-02T13:32:10;11.20;99.90
51783;DHT22;37845;53.196;5.638;2023-05-02T13:34:35;11.20;99.90
51783;DHT22;37845;53.196;5.638;2023-05-02T13:37:01;11.20;99.90
51783;DHT22;37845;53.196;5.638;2023-05-02T13:39:26;11.30;99.90
51783;DHT22;37845;53.196;5.638;2023-05-02T13:41:52;11.10;99.90
51783;DHT22;37845;53.196;5.638;2023-05-02T13:44:18;11.10;99.90
51783;DHT22;37845;53.196;5.638;2023-05-02T13:46:43;10.90;99.90
51783;DHT22;37845;53.196;5.638;2023-05-02T13:49:14;11.10;99.90
51783;DHT22;37845;53.196;5.638;2023-05-02T13:51:40;11.10;99.90
51783;DHT22;37845;53.196;5.638;2023-05-02T13:54:05;11.10;99.90
51783;DHT22;37845;53.196;5.638;2023-05-02T13:56:31;11.20;99.90
51783;DHT22;37845;53.196;5.638;2023-05-02T13:58:57;11.10;99.90
51783;DHT22;37845;53.196;5.638;2023-05-02T14:01:22;11.10;99.90
51783;DHT22;37845;53.196;5.638;2023-05-02T14:03:50;11.00;99.90
51783;DHT22;37845;53.196;5.638;2023-05-02T14:06:16;11.00;99.90
51783;DHT22;37845;53.196;5.638;2023-05-02T14:08:42;11.00;99.90
51783;DHT22;37845;53.196;5.638;2023-05-02T14:11:08;10.90;99.90
51783;DHT22;37845;53.196;5.638;2023-05-02T14:13:33;10.90;99.90
51783;DHT22;37845;53.196;5.638;2023-05-02T14:15:59;10.90;99.90
51783;DHT22;37845;53.196;5.638;2023-05-02T14:18:25;10.80;99.90
51783;DHT22;37845;53.196;5.638;2023-05-02T14:20:51;10.70;99.90
51783;DHT22;37845;53.196;5.638;2023-05-02T14:23:16;10.60;99.90
51783;DHT22;37845;53.196;5.638;2023-05-02T14:25:42;10.60;99.90
51783;DHT22;37845;53.196;5.638;2023-05-02T14:28:07;10.70;99.90
51783;DHT22;37845;53.196;5.638;2023-05-02T14:30:33;10.70;99.90
51783;DHT22;37845;53.196;5.638;2023-05-02T14:32:58;10.60;99.90
51783;DHT22;37845;53.196;5.638;2023-05-02T14:35:24;10.70;99.90
51783;DHT22;37845;53.196;5.638;2023-05-02T14:37:50;10.60;99.90
51783;DHT22;37845;53.196;5.638;2023-05-02T14:40:16;10.60;99.90
51783;DHT22;37845;53.196;5.638;2023-05-02T14:42:41;11.70;99.90
51783;DHT22;37845;53.196;5.638;2023-05-02T14:45:07;10.90;99.90
51783;DHT22;37845;53.196;5.638;2023-05-02T14:47:33;11.20;99.90
51783;DHT22;37845;53.196;5.638;2023-05-02T14:49:59;11.30;99.90
51783;DHT22;37845;53.196;5.638;2023-05-02T14:52:25;11.30;99.90
51783;DHT22;37845;53.196;5.638;2023-05-02T14:54:51;11.40;99.90
51783;DHT22;37845;53.196;5.638;2023-05-02T14:57:17;11.50;99.90
51783;DHT22;37845;53.196;5.638;2023-05-02T14:59:43;11.40;99.90
51783;DHT22;37845;53.196;5.638;2023-05-02T15:02:09;11.40;99.90
51783;DHT22;37845;53.196;5.638;2023-05-02T15:04:34;11.40;99.90
51783;DHT22;37845;53.196;5.638;2023-05-02T15:07:00;11.50;99.90
51783;DHT22;37845;53.196;5.638;2023-05-02T15:09:25;11.40;99.90
51783;DHT22;37845;53.196;5.638;2023-05-02T15:11:51;11.70;99.90
51783;DHT22;37845;53.196;5.638;2023-05-02T15:14:25;12.00;99.90
51783;DHT22;37845;53.196;5.638;2023-05-02T15:16:51;11.80;99.90
51783;DHT22;37845;53.196;5.638;2023-05-02T15:19:16;11.90;99.90
51783;DHT22;37845;53.196;5.638;2023-05-02T15:21:42;12.10;99.90
51783;DHT22;37845;53.196;5.638;2023-05-02T15:24:08;12.20;99.90
51783;DHT22;37845;53.196;5.638;2023-05-02T15:26:33;12.10;99.90
51783;DHT22;37845;53.196;5.638;2023-05-02T15:29:04;12.10;99.90
51783;DHT22;37845;53.196;5.638;2023-05-02T15:31:30;12.20;99.90
51783;DHT22;37845;53.196;5.638;2023-05-02T15:33:55;11.80;99.90
51783;DHT22;37845;53.196;5.638;2023-05-02T15:36:27;11.80;99.90
51783;DHT22;37845;53.196;5.638;2023-05-02T15:38:54;11.70;99.90
51783;DHT22;37845;53.196;5.638;2023-05-02T15:41:20;11.70;99.90
51783;DHT22;37845;53.196;5.638;2023-05-02T15:43:46;11.60;99.90
51783;DHT22;37845;53.196;5.638;2023-05-02T15:46:11;11.50;99.90
51783;DHT22;37845;53.196;5.638;2023-05-02T15:48:37;11.30;99.90
51783;DHT22;37845;53.196;5.638;2023-05-02T15:51:02;11.40;99.90
51783;DHT22;37845;53.196;5.638;2023-05-02T15:53:29;11.40;99.90
51783;DHT22;37845;53.196;5.638;2023-05-02T15:55:55;11.40;99.90
51783;DHT22;37845;53.196;5.638;2023-05-02T15:58:21;11.40;99.90
51783;DHT22;37845;53.196;5.638;2023-05-02T16:00:46;11.30;99.90
51783;DHT22;37845;53.196;5.638;2023-05-02T16:03:12;11.20;99.90
51783;DHT22;37845;53.196;5.638;2023-05-02T16:05:38;11.20;99.90
51783;DHT22;37845;53.196;5.638;2023-05-02T16:08:04;11.40;99.90
51783;DHT22;37845;53.196;5.638;2023-05-02T16:10:29;11.40;99.90
51783;DHT22;37845;53.196;5.638;2023-05-02T16:12:55;11.20;99.90
51783;DHT22;37845;53.196;5.638;2023-05-02T16:15:21;11.30;99.90